Time;durP1;ratioP1;P1;durP2;ratioP2;P2;SDS_P1;SDS_P2;PMS_P1;PMS_P2;Temp;Humidity;BMP_temperature;BMP_pressure;BME280_temperature;BME280_humidity;BME280_pressure;Samples;Min_cycle;Max_cycle;Signal;HPM_P1;HPM_P2
2021/05/05 00:01:15;;;;;;;1.23;0.97;;;8.10;99.90;;;;;;5022096;28;20254;-65
2021/05/05 00:03:41;;;;;;;1.23;0.90;;;8.00;99.90;;;;;;5020344;28;20194;-65
2021/05/05 00:06:08;;;;;;;2.30;1.20;;;8.00;99.90;;;;;;5026954;28;20229;-65
2021/05/05 00:08:33;;;;;;;1.93;0.70;;;8.00;99.90;;;;;;5015709;28;20520;-65
2021/05/05 00:10:59;;;;;;;0.70;0.53;;;7.90;99.90;;;;;;5008722;28;20556;-65
2021/05/05 00:13:24;;;;;;;0.80;0.70;;;7.90;99.90;;;;;;5011268;28;20722;-65
2021/05/05 00:15:50;;;;;;;0.80;0.50;;;8.00;99.90;;;;;;5015198;28;20279;-65
2021/05/05 00:18:16;;;;;;;1.10;1.00;;;8.00;99.90;;;;;;5013989;28;20190;-65
2021/05/05 00:20:41;;;;;;;2.50;0.80;;;8.00;99.90;;;;;;5021752;28;20229;-65
2021/05/05 00:23:07;;;;;;;1.20;1.03;;;8.00;99.90;;;;;;5011851;28;20310;-65
2021/05/05 00:25:33;;;;;;;1.93;1.77;;;8.00;99.90;;;;;;5020990;28;20179;-65
2021/05/05 00:27:59;;;;;;;1.10;1.00;;;7.90;99.90;;;;;;5014954;28;20198;-65
2021/05/05 00:30:25;;;;;;;1.17;0.80;;;7.90;99.90;;;;;;5028087;28;20945;-64
2021/05/05 00:32:51;;;;;;;2.77;1.00;;;7.80;99.90;;;;;;5016182;28;20573;-65
2021/05/05 00:35:17;;;;;;;1.00;0.90;;;7.80;99.90;;;;;;5014725;28;20874;-65
2021/05/05 00:37:43;;;;;;;1.30;0.93;;;7.80;99.90;;;;;;5019347;28;20425;-65
2021/05/05 00:40:10;;;;;;;1.87;0.90;;;7.70;99.90;;;;;;5015929;28;20194;-65
2021/05/05 00:42:36;;;;;;;2.20;0.90;;;7.70;99.90;;;;;;5014931;28;20202;-65
2021/05/05 00:45:07;;;;;;;1.23;1.23;;;7.60;99.90;;;;;;5011176;28;20437;-65
2021/05/05 00:47:33;;;;;;;1.03;0.93;;;7.60;99.90;;;;;;5013816;28;20680;-65
2021/05/05 00:49:58;;;;;;;3.03;1.20;;;7.60;99.90;;;;;;5016403;28;20545;-65
2021/05/05 00:52:25;;;;;;;0.97;0.67;;;7.60;99.90;;;;;;5016455;28;20598;-65
2021/05/05 00:54:51;;;;;;;0.80;0.70;;;7.50;99.90;;;;;;5026258;28;20206;-65
2021/05/05 00:57:17;;;;;;;1.63;0.87;;;7.50;99.90;;;;;;5016113;28;20957;-65
2021/05/05 00:59:42;;;;;;;1.27;1.00;;;7.50;99.90;;;;;;5026950;28;20555;-65
2021/05/05 01:02:08;;;;;;;2.63;1.23;;;7.60;99.90;;;;;;5013105;28;20214;-65
2021/05/05 01:04:34;;;;;;;2.90;1.27;;;7.50;99.90;;;;;;5026857;28;20850;-64
2021/05/05 01:06:59;;;;;;;5.30;1.03;;;7.60;99.90;;;;;;5024280;28;20433;-64
2021/05/05 01:09:27;;;;;;;2.40;1.10;;;7.60;99.90;;;;;;5019335;28;20174;-64
2021/05/05 01:11:54;;;;;;;3.80;1.00;;;7.60;99.90;;;;;;5018166;28;20195;-64
2021/05/05 01:14:21;;;;;;;3.17;1.43;;;7.60;99.90;;;;;;5023880;28;20445;-64
2021/05/05 01:16:47;;;;;;;1.00;0.90;;;7.60;99.90;;;;;;5022679;28;20429;-64
2021/05/05 01:19:13;;;;;;;2.30;0.97;;;7.60;99.90;;;;;;5016393;28;20437;-64
2021/05/05 01:21:38;;;;;;;1.20;1.03;;;7.60;99.90;;;;;;5018957;28;20443;-64
2021/05/05 01:24:05;;;;;;;2.13;1.23;;;7.70;99.90;;;;;;5029867;28;20663;-63
2021/05/05 01:26:31;;;;;;;2.13;1.60;;;7.80;99.90;;;;;;5015743;28;20240;-63
2021/05/05 01:29:00;;;;;;;1.27;1.17;;;7.80;99.90;;;;;;5016748;28;20445;-63
2021/05/05 01:31:26;;;;;;;4.40;1.30;;;7.70;99.90;;;;;;5014465;28;20167;-64
2021/05/05 01:33:52;;;;;;;2.40;1.00;;;7.70;99.90;;;;;;5014376;28;20465;-63
2021/05/05 01:36:20;;;;;;;3.43;1.10;;;7.70;99.90;;;;;;5018689;28;20433;-64
2021/05/05 01:38:47;;;;;;;2.07;1.00;;;7.60;99.90;;;;;;5021662;28;20175;-64
2021/05/05 01:41:13;;;;;;;1.33;1.20;;;7.60;99.90;;;;;;5016901;28;20469;-64
2021/05/05 01:43:38;;;;;;;2.97;1.60;;;7.50;99.90;;;;;;5014075;28;20477;-64
2021/05/05 01:46:04;;;;;;;1.07;0.73;;;7.50;99.90;;;;;;5031694;28;20269;-64
2021/05/05 01:48:30;;;;;;;1.30;0.90;;;7.50;99.90;;;;;;5021508;28;20695;-64
2021/05/05 01:50:56;;;;;;;3.17;0.97;;;7.50;99.90;;;;;;5013490;28;20171;-64
2021/05/05 01:53:21;;;;;;;2.73;1.23;;;7.40;99.90;;;;;;5014204;28;20206;-64
2021/05/05 01:55:47;;;;;;;2.40;1.17;;;7.40;99.90;;;;;;5015552;28;20479;-64
2021/05/05 01:58:13;;;;;;;1.53;1.10;;;7.50;99.90;;;;;;5013938;28;20182;-64
2021/05/05 02:00:40;;;;;;;1.50;1.20;;;7.50;99.90;;;;;;5025927;28;20179;-64
2021/05/05 02:03:06;;;;;;;1.40;1.10;;;7.50;99.90;;;;;;5016494;28;20856;-64
2021/05/05 02:05:32;;;;;;;2.23;1.13;;;7.40;99.90;;;;;;5016396;28;20908;-64
2021/05/05 02:07:58;;;;;;;1.43;0.87;;;7.40;99.90;;;;;;5017266;28;20477;-64
2021/05/05 02:10:24;;;;;;;2.47;0.77;;;7.30;99.90;;;;;;5014477;28;20197;-64
2021/05/05 02:12:49;;;;;;;1.60;0.80;;;7.30;99.90;;;;;;5021252;28;20230;-64
2021/05/05 02:15:21;;;;;;;1.93;1.10;;;7.20;99.90;;;;;;5016574;28;20651;-64
2021/05/05 02:17:51;;;;;;;2.40;1.23;;;7.30;99.90;;;;;;5018756;28;20257;-64
2021/05/05 02:20:20;;;;;;;1.40;1.07;;;7.40;99.90;;;;;;5021710;28;20436;-64
2021/05/05 02:22:47;;;;;;;2.67;0.80;;;7.40;99.90;;;;;;5013626;28;20461;-64
2021/05/05 02:25:12;;;;;;;1.40;1.00;;;7.50;99.90;;;;;;5012956;28;20434;-64
2021/05/05 02:27:39;;;;;;;1.03;0.83;;;7.50;99.90;;;;;;5030356;28;22030;-64
2021/05/05 02:30:08;;;;;;;1.27;1.07;;;7.50;99.90;;;;;;5019233;28;20179;-64
2021/05/05 02:32:34;;;;;;;1.57;0.77;;;7.50;99.90;;;;;;5021876;28;20461;-64
2021/05/05 02:35:00;;;;;;;1.53;0.90;;;7.50;99.90;;;;;;5018555;28;20863;-64
2021/05/05 02:37:26;;;;;;;3.00;0.90;;;7.40;99.90;;;;;;5017628;28;20441;-63
2021/05/05 02:39:52;;;;;;;4.30;0.80;;;7.30;99.90;;;;;;5026711;28;20178;-64
2021/05/05 02:42:19;;;;;;;1.40;1.10;;;7.30;99.90;;;;;;5017414;28;20571;-64
2021/05/05 02:44:48;;;;;;;0.83;0.83;;;7.40;99.90;;;;;;5015708;28;20885;-64
2021/05/05 02:47:14;;;;;;;1.30;1.10;;;7.30;99.90;;;;;;5013188;28;20453;-64
2021/05/05 02:49:40;;;;;;;1.07;0.70;;;7.30;99.90;;;;;;5020901;28;20441;-64
2021/05/05 02:52:06;;;;;;;1.33;1.10;;;7.30;99.90;;;;;;5020852;28;20548;-64
2021/05/05 02:54:34;;;;;;;3.43;0.80;;;7.30;99.90;;;;;;5015506;28;20174;-64
2021/05/05 02:57:00;;;;;;;2.33;1.20;;;7.30;99.90;;;;;;5013705;28;20580;-64
2021/05/05 02:59:26;;;;;;;4.50;1.57;;;7.30;99.90;;;;;;5007628;28;20484;-64
2021/05/05 03:01:52;;;;;;;1.37;1.10;;;7.30;99.90;;;;;;5024670;28;20442;-64
2021/05/05 03:04:18;;;;;;;2.00;1.20;;;7.20;99.90;;;;;;5015145;28;20171;-64
2021/05/05 03:06:44;;;;;;;2.40;1.53;;;7.30;99.90;;;;;;5012793;28;20452;-64
2021/05/05 03:09:10;;;;;;;1.60;1.10;;;7.30;99.90;;;;;;5016762;28;20943;-64
2021/05/05 03:11:35;;;;;;;1.20;1.00;;;7.30;99.90;;;;;;5015058;28;20624;-64
2021/05/05 03:14:01;;;;;;;3.30;0.93;;;7.30;99.90;;;;;;5003024;28;20859;-64
2021/05/05 03:16:27;;;;;;;3.40;1.40;;;7.20;99.90;;;;;;5013674;28;20606;-64
2021/05/05 03:18:53;;;;;;;2.00;1.10;;;7.30;99.90;;;;;;5013222;28;20171;-64
2021/05/05 03:21:20;;;;;;;0.93;0.93;;;7.20;99.90;;;;;;5014422;28;20174;-64
2021/05/05 03:23:46;;;;;;;1.20;1.10;;;7.20;99.90;;;;;;5016116;28;20869;-64
2021/05/05 03:26:11;;;;;;;1.37;1.00;;;7.20;99.90;;;;;;5020019;28;20499;-64
2021/05/05 03:28:37;;;;;;;1.43;1.23;;;7.20;99.90;;;;;;5015386;28;20441;-64
2021/05/05 03:31:03;;;;;;;1.07;0.97;;;7.20;99.90;;;;;;5019393;28;20171;-64
2021/05/05 03:33:28;;;;;;;2.30;0.83;;;7.30;99.90;;;;;;5013698;28;20207;-64
2021/05/05 03:35:54;;;;;;;4.73;2.20;;;7.30;99.90;;;;;;5012435;28;20183;-64
2021/05/05 03:38:19;;;;;;;2.73;1.53;;;7.30;99.90;;;;;;5020954;28;20185;-64
2021/05/05 03:40:45;;;;;;;3.27;2.10;;;7.30;99.90;;;;;;5015162;28;20286;-64
2021/05/05 03:43:11;;;;;;;1.70;1.23;;;7.30;99.90;;;;;;5012004;28;20218;-64
2021/05/05 03:45:36;;;;;;;1.80;1.37;;;7.30;99.90;;;;;;5011477;28;20194;-64
2021/05/05 03:48:03;;;;;;;3.30;2.30;;;7.30;99.90;;;;;;5017536;28;20189;-64
2021/05/05 03:50:29;;;;;;;2.60;1.20;;;7.30;99.90;;;;;;5014899;28;20183;-64
2021/05/05 03:52:55;;;;;;;2.27;1.43;;;7.30;99.90;;;;;;5019420;28;20616;-64
2021/05/05 03:55:21;;;;;;;4.00;1.30;;;7.30;99.90;;;;;;5016976;28;20441;-64
2021/05/05 03:57:47;;;;;;;2.30;1.33;;;7.40;99.90;;;;;;5027161;28;20170;-64
2021/05/05 04:00:13;;;;;;;2.80;1.20;;;7.30;99.90;;;;;;5011983;28;20953;-64
2021/05/05 04:02:39;;;;;;;2.47;1.40;;;7.30;99.90;;;;;;5022528;28;20460;-64
2021/05/05 04:05:06;;;;;;;1.43;1.10;;;7.30;99.90;;;;;;5015828;28;20817;-64
2021/05/05 04:07:31;;;;;;;4.10;1.37;;;7.30;99.90;;;;;;5013116;28;20175;-64
2021/05/05 04:09:57;;;;;;;1.40;1.20;;;7.30;99.90;;;;;;5002671;28;20801;-64
2021/05/05 04:12:24;;;;;;;1.30;0.90;;;7.20;99.90;;;;;;5022800;28;20229;-64
2021/05/05 04:14:50;;;;;;;1.67;1.00;;;7.20;99.90;;;;;;5013421;28;20611;-64
2021/05/05 04:17:15;;;;;;;1.87;1.07;;;7.20;99.90;;;;;;5011160;28;20529;-64
2021/05/05 04:19:41;;;;;;;2.00;1.00;;;7.20;99.90;;;;;;5030124;28;20709;-64
2021/05/05 04:22:07;;;;;;;2.27;1.10;;;7.10;99.90;;;;;;5012694;28;20718;-64
2021/05/05 04:24:33;;;;;;;1.13;0.97;;;7.10;99.90;;;;;;5022853;28;20182;-64
2021/05/05 04:26:59;;;;;;;1.20;0.77;;;7.00;99.90;;;;;;5012372;28;20504;-64
2021/05/05 04:29:24;;;;;;;2.13;1.13;;;7.00;99.90;;;;;;5012403;28;20244;-64
2021/05/05 04:31:54;;;;;;;1.67;0.90;;;6.90;99.90;;;;;;4999630;28;20449;-64
2021/05/05 04:34:20;;;;;;;1.00;1.00;;;6.90;99.90;;;;;;5008347;28;20178;-63
2021/05/05 04:36:46;;;;;;;0.80;0.73;;;6.80;99.90;;;;;;5021336;28;20433;-64
2021/05/05 04:39:11;;;;;;;2.17;0.90;;;6.80;99.90;;;;;;5015042;28;20961;-64
2021/05/05 04:41:37;;;;;;;3.40;1.10;;;6.80;99.90;;;;;;5013400;28;20249;-64
2021/05/05 04:44:03;;;;;;;0.80;0.80;;;6.80;99.90;;;;;;5011816;28;20195;-63
2021/05/05 04:46:29;;;;;;;2.63;1.30;;;6.80;99.90;;;;;;5025742;28;20257;-64
2021/05/05 04:48:55;;;;;;;1.00;0.67;;;6.80;99.90;;;;;;5012988;28;20520;-64
2021/05/05 04:51:20;;;;;;;1.60;0.90;;;6.80;99.90;;;;;;5010738;28;20181;-63
2021/05/05 04:53:46;;;;;;;1.23;0.80;;;6.70;99.90;;;;;;5019714;28;20434;-63
2021/05/05 04:56:11;;;;;;;2.83;1.17;;;6.70;99.90;;;;;;5015404;28;20181;-64
2021/05/05 04:58:37;;;;;;;1.67;0.83;;;6.70;99.90;;;;;;5021802;28;20166;-63
2021/05/05 05:01:03;;;;;;;3.03;1.10;;;6.70;99.90;;;;;;5014195;28;20179;-63
2021/05/05 05:03:29;;;;;;;2.83;0.80;;;6.70;99.90;;;;;;5019082;28;20450;-63
2021/05/05 05:05:54;;;;;;;2.10;0.80;;;6.70;99.90;;;;;;5014887;28;20460;-63
2021/05/05 05:08:20;;;;;;;2.90;2.23;;;6.70;99.90;;;;;;5019624;28;20671;-64
2021/05/05 05:10:46;;;;;;;1.77;0.70;;;6.80;99.90;;;;;;5022660;28;20171;-63
2021/05/05 05:13:11;;;;;;;2.00;1.20;;;6.70;99.90;;;;;;5041172;23;20314;-65
2021/05/05 05:15:37;;;;;;;3.90;1.43;;;6.80;99.90;;;;;;5006333;28;20254;-66
2021/05/05 05:18:02;;;;;;;2.30;1.03;;;6.80;99.90;;;;;;5004930;28;20171;-67
2021/05/05 05:20:28;;;;;;;1.20;1.10;;;6.80;99.90;;;;;;5001187;28;20175;-67
2021/05/05 05:22:55;;;;;;;1.30;0.90;;;6.90;99.90;;;;;;4999898;28;20194;-64
2021/05/05 05:25:22;;;;;;;1.27;1.00;;;6.90;99.90;;;;;;5010246;28;20187;-66
2021/05/05 05:27:48;;;;;;;5.33;1.00;;;6.90;99.90;;;;;;5008661;28;20441;-65
2021/05/05 05:30:15;;;;;;;2.43;1.00;;;7.00;99.90;;;;;;5007185;28;20421;-65
2021/05/05 05:32:40;;;;;;;1.63;1.23;;;7.00;99.90;;;;;;5008399;28;20986;-65
2021/05/05 05:35:06;;;;;;;2.20;1.10;;;7.10;99.90;;;;;;5007850;28;20483;-65
2021/05/05 05:37:32;;;;;;;7.97;4.23;;;7.20;99.90;;;;;;5010176;28;20175;-65
2021/05/05 05:39:57;;;;;;;1.40;1.00;;;7.20;99.90;;;;;;5020496;28;20471;-64
2021/05/05 05:42:23;;;;;;;7.47;1.67;;;7.30;99.90;;;;;;5010163;28;20171;-65
2021/05/05 05:44:49;;;;;;;2.63;1.23;;;7.40;99.90;;;;;;5009258;28;20175;-65
2021/05/05 05:47:15;;;;;;;4.30;1.50;;;7.60;99.90;;;;;;5010149;28;20469;-67
2021/05/05 05:49:40;;;;;;;1.20;1.10;;;7.60;99.90;;;;;;5009981;28;20210;-67
2021/05/05 05:52:06;;;;;;;2.10;1.50;;;7.60;99.90;;;;;;5010099;28;20296;-67
2021/05/05 05:54:32;;;;;;;5.50;1.60;;;7.60;99.90;;;;;;5010544;28;20175;-68
2021/05/05 05:56:57;;;;;;;1.20;1.13;;;7.60;99.90;;;;;;5010766;28;20178;-68
2021/05/05 05:59:23;;;;;;;4.30;1.67;;;7.70;99.90;;;;;;5009899;28;20172;-67
2021/05/05 06:01:48;;;;;;;1.47;1.33;;;7.70;99.90;;;;;;5010619;28;20545;-68
2021/05/05 06:04:16;;;;;;;2.03;1.83;;;7.80;99.90;;;;;;5010470;28;20195;-67
2021/05/05 06:06:42;;;;;;;3.40;1.80;;;7.80;99.90;;;;;;5010686;28;20228;-66
2021/05/05 06:09:07;;;;;;;3.67;1.67;;;8.00;99.90;;;;;;5013444;28;20504;-67
2021/05/05 06:11:33;;;;;;;3.40;1.70;;;8.00;99.90;;;;;;5014302;28;20268;-68
2021/05/05 06:13:58;;;;;;;4.63;2.13;;;8.00;99.90;;;;;;5014294;28;20210;-67
2021/05/05 06:16:24;;;;;;;4.60;1.40;;;7.90;99.90;;;;;;5013390;28;20186;-67
2021/05/05 06:18:49;;;;;;;5.07;1.87;;;7.90;99.90;;;;;;5003577;28;20174;-67
2021/05/05 06:21:15;;;;;;;2.70;1.90;;;7.90;99.90;;;;;;5003917;28;20174;-67
2021/05/05 06:23:41;;;;;;;4.30;1.90;;;7.90;99.90;;;;;;5010219;28;20256;-68
2021/05/05 06:26:06;;;;;;;2.50;1.90;;;7.90;99.90;;;;;;4995719;28;20203;-68
2021/05/05 06:28:32;;;;;;;5.37;2.60;;;7.90;99.90;;;;;;4997647;28;20191;-66
2021/05/05 06:30:58;;;;;;;2.50;2.00;;;7.90;99.90;;;;;;5010353;28;20225;-67
2021/05/05 06:33:25;;;;;;;2.80;2.00;;;7.80;99.90;;;;;;5005220;28;20929;-67
2021/05/05 06:35:51;;;;;;;3.27;1.80;;;7.80;99.90;;;;;;5008931;28;20449;-67
2021/05/05 06:38:17;;;;;;;4.03;1.93;;;7.90;99.90;;;;;;5012061;28;20430;-66
2021/05/05 06:40:42;;;;;;;3.43;2.27;;;8.10;99.90;;;;;;5005677;28;21101;-67
2021/05/05 06:43:08;;;;;;;3.30;2.53;;;8.40;99.90;;;;;;5002941;28;20213;-67
2021/05/05 06:45:33;;;;;;;4.00;2.73;;;8.60;99.90;;;;;;5012129;28;20545;-69
2021/05/05 06:47:59;;;;;;;7.60;3.17;;;8.50;99.90;;;;;;5012007;28;20202;-67
2021/05/05 06:50:25;;;;;;;2.80;2.30;;;8.50;99.90;;;;;;5011582;28;20214;-66
2021/05/05 06:52:51;;;;;;;5.20;1.93;;;8.50;99.90;;;;;;5012380;28;20256;-67
2021/05/05 06:55:16;;;;;;;3.73;2.30;;;8.70;99.90;;;;;;5006076;28;20417;-67
2021/05/05 06:57:42;;;;;;;4.07;1.80;;;9.10;99.90;;;;;;5012413;28;20186;-67
2021/05/05 07:00:08;;;;;;;4.27;2.07;;;9.40;99.90;;;;;;5012011;28;20210;-69
2021/05/05 07:02:34;;;;;;;7.13;1.97;;;9.70;99.90;;;;;;5000755;28;20257;-67
2021/05/05 07:05:00;;;;;;;3.93;2.00;;;10.30;99.90;;;;;;5011237;28;20442;-67
2021/05/05 07:07:28;;;;;;;4.53;2.10;;;10.60;99.90;;;;;;5010595;28;20190;-67
2021/05/05 07:09:55;;;;;;;4.90;2.13;;;10.80;99.90;;;;;;5012184;28;20698;-67
2021/05/05 07:12:21;;;;;;;4.30;2.20;;;10.70;99.90;;;;;;5000030;28;20458;-67
2021/05/05 07:14:46;;;;;;;6.63;2.13;;;10.90;99.90;;;;;;5010068;28;20492;-67
2021/05/05 07:17:18;;;;;;;2.30;2.10;;;11.00;99.90;;;;;;5012427;28;20210;-69
2021/05/05 07:19:44;;;;;;;4.77;2.60;;;11.20;99.90;;;;;;5007961;28;20250;-67
2021/05/05 07:22:09;;;;;;;8.43;4.10;;;11.10;99.90;;;;;;5010605;28;20430;-67
2021/05/05 07:24:35;;;;;;;3.23;2.03;;;10.80;99.90;;;;;;5011484;28;20996;-67
2021/05/05 07:27:00;;;;;;;5.00;2.60;;;10.70;99.90;;;;;;5006968;28;20187;-67
2021/05/05 07:29:26;;;;;;;4.23;2.30;;;10.50;99.90;;;;;;5005274;28;20249;-67
2021/05/05 07:31:52;;;;;;;4.63;2.37;;;10.30;99.90;;;;;;5012274;28;20591;-66
2021/05/05 07:34:17;;;;;;;4.57;1.90;;;10.40;99.90;;;;;;4992415;28;20199;-68
2021/05/05 07:36:48;;;;;;;6.13;2.07;;;10.40;99.90;;;;;;5002668;28;20195;-67
2021/05/05 07:45:09;;;;;;;1.87;1.70;;;9.80;99.90;;;;;;5002156;28;20507;-68
2021/05/05 07:47:51;;;;;;;2.00;1.70;;;9.40;99.90;;;;;;4998257;28;20493;-68
2021/05/05 07:50:17;;;;;;;3.37;1.53;;;9.50;99.90;;;;;;5008620;28;20472;-67
2021/05/05 07:52:43;;;;;;;5.57;1.70;;;9.50;99.90;;;;;;5011082;28;20501;-69
2021/05/05 07:55:10;;;;;;;4.13;1.90;;;9.60;99.90;;;;;;5007526;28;20175;-68
2021/05/05 07:57:37;;;;;;;4.13;1.93;;;9.90;99.90;;;;;;5008706;28;20466;-67
2021/05/05 08:00:05;;;;;;;3.20;2.27;;;10.30;99.90;;;;;;5001093;28;20438;-68
2021/05/05 08:02:30;;;;;;;4.10;1.60;;;10.60;99.90;;;;;;5008505;28;20503;-67
2021/05/05 08:04:56;;;;;;;2.37;1.53;;;10.80;99.90;;;;;;5010057;28;20577;-69
2021/05/05 08:07:22;;;;;;;4.83;2.07;;;10.90;99.90;;;;;;5007145;28;20598;-68
2021/05/05 08:09:49;;;;;;;2.40;1.93;;;11.10;99.90;;;;;;5011120;28;20187;-68
2021/05/05 08:12:15;;;;;;;4.17;1.70;;;11.10;99.90;;;;;;5010085;28;20453;-68
2021/05/05 08:14:41;;;;;;;2.43;2.20;;;11.40;99.90;;;;;;5011330;28;20510;-68
2021/05/05 08:17:07;;;;;;;2.77;1.70;;;11.70;99.90;;;;;;5009797;28;20458;-68
2021/05/05 08:19:34;;;;;;;2.80;1.50;;;12.10;99.90;;;;;;5002037;28;20955;-68
2021/05/05 08:22:00;;;;;;;3.03;1.60;;;12.30;99.90;;;;;;5011087;28;20464;-67
2021/05/05 08:24:28;;;;;;;5.30;2.17;;;12.20;99.90;;;;;;4997577;28;20488;-68
2021/05/05 08:26:54;;;;;;;2.30;1.50;;;12.40;99.90;;;;;;5009706;28;20261;-68
2021/05/05 08:29:19;;;;;;;4.33;2.00;;;12.70;99.90;;;;;;5010521;28;20955;-67
2021/05/05 08:31:45;;;;;;;6.90;2.20;;;12.60;99.90;;;;;;5009936;28;20444;-68
2021/05/05 08:34:11;;;;;;;3.07;2.20;;;12.40;99.90;;;;;;5008835;28;20277;-68
2021/05/05 08:36:37;;;;;;;4.97;2.17;;;12.10;99.90;;;;;;5010094;28;20202;-68
2021/05/05 08:39:03;;;;;;;6.57;1.83;;;12.30;99.90;;;;;;5002727;28;20644;-68
2021/05/05 08:41:29;;;;;;;6.23;2.47;;;12.30;99.90;;;;;;5003096;28;20258;-68
2021/05/05 08:43:55;;;;;;;4.23;2.20;;;12.10;99.90;;;;;;5003768;28;20458;-68
2021/05/05 08:46:21;;;;;;;3.20;1.70;;;12.10;99.90;;;;;;5011283;28;20421;-68
2021/05/05 08:48:48;;;;;;;2.70;1.60;;;12.10;99.90;;;;;;5011033;28;20171;-68
2021/05/05 08:51:14;;;;;;;5.37;2.00;;;11.70;99.90;;;;;;4996496;28;20477;-67
2021/05/05 08:53:44;;;;;;;4.67;2.00;;;11.40;99.90;;;;;;4991484;28;20593;-68
2021/05/05 08:56:10;;;;;;;3.33;1.80;;;11.10;99.90;;;;;;4992011;28;20760;-68
2021/05/05 08:58:36;;;;;;;2.57;1.60;;;11.30;99.90;;;;;;4991792;28;20484;-68
2021/05/05 09:01:04;;;;;;;3.10;1.90;;;11.30;99.90;;;;;;4995985;28;20431;-69
2021/05/05 09:03:31;;;;;;;1.77;1.40;;;11.50;99.90;;;;;;4991505;28;20477;-68
2021/05/05 09:05:58;;;;;;;3.20;2.00;;;11.80;99.90;;;;;;4991597;28;20414;-68
2021/05/05 09:08:26;;;;;;;4.10;2.10;;;11.80;99.90;;;;;;4998231;28;20592;-67
2021/05/05 09:10:57;;;;;;;3.93;2.70;;;11.80;99.90;;;;;;5001013;28;20813;-68
2021/05/05 09:13:50;;;;;;;3.27;1.70;;;12.30;99.90;;;;;;5005034;28;20467;-68
2021/05/05 09:16:34;;;;;;;3.03;1.63;;;12.70;99.90;;;;;;4992809;28;20469;-68
2021/05/05 09:19:05;;;;;;;2.93;1.77;;;12.90;99.00;;;;;;4993160;28;20544;-67
2021/05/05 09:21:39;;;;;;;4.77;2.07;;;12.70;98.50;;;;;;5003736;28;20426;-68
2021/05/05 09:24:28;;;;;;;3.73;2.10;;;12.50;98.60;;;;;;5000293;28;20451;-67
2021/05/05 09:27:06;;;;;;;6.87;1.90;;;12.30;97.90;;;;;;5005590;28;20484;-68
2021/05/05 09:29:40;;;;;;;6.57;1.90;;;11.90;99.80;;;;;;5007980;28;20520;-67
2021/05/05 09:32:06;;;;;;;2.90;1.67;;;11.50;99.20;;;;;;5007825;28;20453;-67
2021/05/05 09:34:31;;;;;;;3.67;1.77;;;11.30;98.90;;;;;;5006743;28;20425;-67
2021/05/05 09:37:03;;;;;;;4.37;2.00;;;11.00;99.10;;;;;;4997016;28;20878;-68
2021/05/05 09:39:35;;;;;;;3.70;2.17;;;11.00;99.90;;;;;;5005731;28;20183;-68
2021/05/05 09:42:01;;;;;;;6.07;2.10;;;11.70;99.90;;;;;;4994766;28;20856;-67
2021/05/05 09:44:28;;;;;;;3.30;1.87;;;12.20;99.20;;;;;;5004589;28;20492;-68
2021/05/05 09:46:57;;;;;;;2.87;1.83;;;12.30;97.40;;;;;;4999333;28;20430;-67
2021/05/05 09:49:33;;;;;;;3.23;1.67;;;12.60;96.90;;;;;;5004839;28;20430;-68
2021/05/05 09:52:11;;;;;;;2.70;1.70;;;13.00;96.30;;;;;;5008200;28;20454;-67
2021/05/05 09:54:53;;;;;;;2.37;1.80;;;13.60;96.40;;;;;;5013051;28;20444;-68
2021/05/05 09:57:27;;;;;;;3.73;2.00;;;14.30;91.90;;;;;;5005636;28;20431;-68
2021/05/05 09:59:58;;;;;;;2.33;2.03;;;15.00;88.20;;;;;;5005593;28;20465;-67
2021/05/05 10:02:27;;;;;;;2.60;1.90;;;16.00;80.80;;;;;;5007532;28;20429;-67
2021/05/05 10:05:05;;;;;;;3.57;1.90;;;16.30;76.80;;;;;;5000089;28;20509;-67
2021/05/05 10:07:50;;;;;;;4.87;2.43;;;15.60;71.40;;;;;;5011645;28;20467;-68
2021/05/05 10:10:15;;;;;;;4.40;3.20;;;14.90;73.70;;;;;;5002320;28;20444;-66
2021/05/05 10:12:41;;;;;;;3.33;3.03;;;15.40;75.80;;;;;;5000543;28;20469;-69
2021/05/05 10:15:08;;;;;;;3.77;1.53;;;16.00;73.90;;;;;;5009022;28;20172;-67
2021/05/05 10:17:34;;;;;;;1.93;1.63;;;15.70;69.50;;;;;;5007559;28;20445;-67
2021/05/05 10:20:02;;;;;;;2.90;2.10;;;15.60;66.70;;;;;;5008268;28;20430;-68
2021/05/05 10:22:29;;;;;;;3.07;2.73;;;15.70;66.20;;;;;;5007585;28;20545;-69
2021/05/05 10:24:55;;;;;;;3.00;2.37;;;16.30;65.50;;;;;;5011345;28;20430;-69
2021/05/05 10:27:21;;;;;;;2.97;1.90;;;16.80;66.10;;;;;;5001929;28;20841;-67
2021/05/05 10:29:46;;;;;;;3.67;2.07;;;16.50;66.10;;;;;;5009210;28;20571;-68
2021/05/05 10:32:14;;;;;;;3.23;1.83;;;16.60;65.10;;;;;;5008854;28;20687;-68
2021/05/05 10:34:42;;;;;;;2.77;2.10;;;17.60;62.50;;;;;;5009301;28;20425;-67
2021/05/05 10:37:08;;;;;;;2.70;2.00;;;17.70;61.60;;;;;;5005217;28;20438;-66
2021/05/05 10:39:41;;;;;;;4.33;2.20;;;17.10;62.10;;;;;;5010738;28;20421;-66
2021/05/05 10:42:15;;;;;;;1.70;1.33;;;17.30;59.30;;;;;;5003686;28;20576;-66
2021/05/05 10:44:47;;;;;;;3.53;2.13;;;17.70;58.50;;;;;;5000379;28;20425;-67
2021/05/05 10:47:34;;;;;;;2.17;1.43;;;18.70;57.90;;;;;;5000465;28;20449;-67
2021/05/05 10:50:03;;;;;;;2.93;2.40;;;17.80;57.30;;;;;;5009277;28;20517;-68
2021/05/05 10:52:37;;;;;;;3.37;1.80;;;15.70;59.50;;;;;;5000646;28;20561;-68
2021/05/05 10:55:07;;;;;;;2.27;2.07;;;14.50;62.80;;;;;;5002814;28;20441;-69
2021/05/05 10:57:33;;;;;;;1.30;1.20;;;13.60;71.90;;;;;;5001814;28;20438;-68
2021/05/05 11:00:06;;;;;;;1.27;1.17;;;12.20;91.50;;;;;;5004857;28;20485;-68
2021/05/05 11:05:32;;;;;;;2.80;1.00;;;9.60;99.90;;;;;;5003817;28;20520;-69
2021/05/05 11:08:06;;;;;;;1.30;1.03;;;9.00;99.90;;;;;;4995169;28;20438;-68
2021/05/05 11:10:35;;;;;;;1.90;1.10;;;8.70;99.90;;;;;;4993947;28;20444;-68
2021/05/05 11:13:01;;;;;;;1.10;1.00;;;8.40;99.90;;;;;;5002957;28;20458;-68
2021/05/05 11:15:42;;;;;;;1.43;1.33;;;8.40;99.90;;;;;;5001192;28;20469;-67
2021/05/05 11:18:34;;;;;;;0.90;0.80;;;8.10;99.90;;;;;;4992348;28;20433;-67
2021/05/05 11:21:19;;;;;;;1.73;1.10;;;8.00;99.90;;;;;;4990009;28;20448;-68
2021/05/05 11:23:45;;;;;;;2.90;1.00;;;7.90;99.90;;;;;;5003836;28;20458;-67
2021/05/05 11:26:17;;;;;;;2.23;1.40;;;7.90;99.90;;;;;;5001222;28;20492;-67
2021/05/05 11:28:54;;;;;;;1.07;0.97;;;8.40;99.90;;;;;;5005716;28;20912;-67
2021/05/05 11:31:21;;;;;;;1.40;1.10;;;9.60;99.90;;;;;;5004291;28;20464;-68
2021/05/05 11:33:58;;;;;;;1.10;1.00;;;9.90;99.90;;;;;;4999635;28;20469;-67
2021/05/05 11:36:23;;;;;;;2.03;1.10;;;10.30;99.90;;;;;;4999165;28;20946;-68
2021/05/05 11:38:49;;;;;;;1.13;1.03;;;11.40;99.90;;;;;;4997896;28;20427;-68
2021/05/05 11:41:21;;;;;;;1.20;1.00;;;11.80;99.90;;;;;;5001733;28;20726;-68
2021/05/05 11:43:46;;;;;;;2.00;1.13;;;11.40;99.90;;;;;;4993265;28;20787;-68
2021/05/05 11:46:12;;;;;;;1.47;1.20;;;10.70;99.90;;;;;;4996849;28;20545;-69
2021/05/05 11:48:40;;;;;;;1.10;1.00;;;11.60;99.90;;;;;;4994907;28;20198;-68
2021/05/05 11:51:20;;;;;;;6.13;3.03;;;13.30;99.90;;;;;;5004014;28;20600;-69
2021/05/05 11:53:47;;;;;;;3.57;2.13;;;14.70;99.90;;;;;;4999406;28;20466;-69
2021/05/05 11:56:26;;;;;;;2.07;1.70;;;14.60;99.90;;;;;;5002471;28;20435;-68
2021/05/05 11:58:57;;;;;;;1.70;1.60;;;13.30;99.90;;;;;;5002116;28;20430;-68
2021/05/05 12:01:35;;;;;;;2.17;1.50;;;11.90;99.90;;;;;;5004892;28;20525;-68
2021/05/05 12:04:18;;;;;;;3.30;2.30;;;11.10;99.90;;;;;;4997598;28;20457;-67
2021/05/05 12:06:53;;;;;;;2.60;1.63;;;11.20;99.90;;;;;;5001990;28;20902;-67
2021/05/05 12:09:23;;;;;;;4.80;1.50;;;12.00;99.90;;;;;;4996099;28;20786;-67
2021/05/05 12:11:48;;;;;;;1.93;1.70;;;14.10;99.90;;;;;;5005182;28;20465;-67
2021/05/05 12:14:27;;;;;;;2.30;1.73;;;15.40;99.90;;;;;;4996422;28;20556;-68
2021/05/05 12:16:56;;;;;;;1.50;1.40;;;17.00;94.60;;;;;;4997714;28;20186;-68
2021/05/05 12:19:22;;;;;;;1.70;1.43;;;17.80;90.80;;;;;;5002757;28;20433;-68
2021/05/05 12:21:47;;;;;;;2.37;1.60;;;17.60;86.90;;;;;;4998053;28;20449;-68
2021/05/05 12:24:13;;;;;;;1.93;1.80;;;16.80;87.60;;;;;;5007519;28;20439;-68
2021/05/05 12:26:39;;;;;;;2.80;1.90;;;16.30;89.20;;;;;;5004701;28;20628;-67
2021/05/05 12:29:06;;;;;;;1.63;1.53;;;15.20;90.50;;;;;;5008790;28;20175;-68
2021/05/05 12:31:34;;;;;;;2.27;1.50;;;14.80;91.80;;;;;;4999626;28;20439;-68
2021/05/05 12:34:03;;;;;;;1.73;1.43;;;14.40;93.00;;;;;;4995542;28;20468;-67
2021/05/05 12:36:30;;;;;;;1.60;1.50;;;13.70;94.70;;;;;;5000621;28;20525;-67
2021/05/05 12:38:59;;;;;;;6.37;2.00;;;13.20;96.30;;;;;;5001832;28;20471;-67
2021/05/05 12:41:43;;;;;;;1.63;1.23;;;12.90;96.30;;;;;;4996321;28;21099;-67
2021/05/05 12:44:09;;;;;;;1.67;1.10;;;12.20;95.00;;;;;;4988573;28;20981;-66
2021/05/05 12:46:58;;;;;;;1.80;1.30;;;11.80;95.80;;;;;;5002972;28;21454;-67
2021/05/05 12:49:36;;;;;;;3.97;1.30;;;11.20;99.90;;;;;;4994058;28;20805;-67
2021/05/05 12:52:04;;;;;;;4.30;1.70;;;10.80;99.90;;;;;;4998562;28;20878;-67
2021/05/05 12:54:32;;;;;;;1.60;1.27;;;11.20;99.90;;;;;;5003297;28;20485;-67
2021/05/05 12:56:59;;;;;;;2.67;2.47;;;13.00;99.90;;;;;;5003218;28;20961;-67
2021/05/05 12:59:24;;;;;;;1.30;1.20;;;15.30;99.90;;;;;;5001419;28;20843;-68
2021/05/05 13:02:04;;;;;;;1.87;1.37;;;17.70;97.50;;;;;;5006062;28;20427;-68
2021/05/05 13:04:34;;;;;;;1.30;1.20;;;19.70;91.80;;;;;;4999255;28;20190;-68